Terminal Aerodrome Forecast
Issued by NWS Wilmington, OH

Current Version | Previous Version | Text Only | Print | Product List | Glossary Off
Versions: 1 2 3 4 5 6 7 8 9 10 11 12 13 14 15 16 17 18 19 20

000
FTUS41 KILN 271700
TAFCVG
TAF
KCVG 271729Z 2718/2824 VRB03KT P6SM FEW080 SCT250
     FM271900 34005KT P6SM SCT050
     FM280000 02005KT P6SM SCT250
     FM281000 03004KT 5SM BR SCT250
     FM281300 06005KT P6SM BKN250=

USA.gov is the U.S. government's official web portal to all federal, state and local government web resources and services.